LFOB/BVA METAR and TAF weather

Enter ICAO airport designator
Station Type Date Time Source
LFOB METAR 2019/12/05 23:00 UTC NOAA

LFOB 052300Z AUTO 20007KT 5000 BR OVC003 01/01 Q1021 TEMPO 0500 FG VV///


Station Type Date Time Source
LFOB Decoded METAR 2019/12/05 23:00 UTC NOAA

Beauvais, France (LFOB) 49-28N 002-07E 111M
Dec 05, 2019 - 06:00 PM EST / 2019.12.05 2300 UTC
Wind: from the SSW (200 degrees) at 8 MPH (7 KT):0
Visibility: 3 mile(s):0
Sky conditions: overcast
Weather: mist
Temperature: 33 F (1 C)
Windchill: 26 F (-3 C):1
Dew Point: 33 F (1 C)
Relative Humidity: 100%
Pressure (altimeter): 30.15 in. Hg (1021 hPa)
ob: LFOB 052300Z AUTO 20007KT 5000 BR OVC003 01/01 Q1021 TEMPO 0500 FG VV///
cycle: 23

Station Type Date Time Source
LFOB TAF 2019/12/05 18:21 UTC NOAA

TAF TAF LFOB 051700Z 0518/0618 21008KT 2000 BR OVC004 PROB30
TEMPO 0518/0602 0500 FG VV///
TEMPO 0605/0618 1200 DZRA
TEMPO 0611/0618 21015G25KT

Example: see airport list